createdAt,value
2022-08-17T00:00:34.336Z,21.00
2022-08-17T00:03:18.333Z,21.00
2022-08-17T00:06:07.599Z,21.00
2022-08-17T00:08:57.823Z,20.90
2022-08-17T00:11:28.831Z,20.90
2022-08-17T00:14:05.519Z,20.90
2022-08-17T00:16:50.426Z,20.80
2022-08-17T00:19:25.744Z,20.80
2022-08-17T00:22:31.395Z,20.80
2022-08-17T00:24:44.905Z,20.70
2022-08-17T00:27:11.909Z,20.70
2022-08-17T00:29:38.995Z,20.70
2022-08-17T00:33:14.906Z,20.70
2022-08-17T00:34:54.032Z,20.60
2022-08-17T00:37:23.683Z,20.60
2022-08-17T00:39:53.611Z,20.60
2022-08-17T00:42:20.680Z,20.60
2022-08-17T00:44:47.908Z,20.60
2022-08-17T00:47:15.084Z,20.50
2022-08-17T00:49:42.308Z,20.50
2022-08-17T00:52:21.718Z,20.50
2022-08-17T00:54:54.879Z,20.50
2022-08-17T00:57:32.902Z,20.40
2022-08-17T01:00:39.411Z,20.40
2022-08-17T01:03:10.039Z,20.30
2022-08-17T01:05:42.233Z,20.30
2022-08-17T01:08:15.017Z,20.30
2022-08-17T01:10:58.587Z,20.30
2022-08-17T01:13:41.006Z,20.30
2022-08-17T01:16:32.564Z,20.20
2022-08-17T01:19:12.317Z,20.20
2022-08-17T01:21:55.132Z,20.10
2022-08-17T01:24:22.497Z,20.20
2022-08-17T01:26:49.913Z,20.10
2022-08-17T01:29:18.732Z,20.10
2022-08-17T01:31:56.684Z,20.00
2022-08-17T01:34:24.996Z,20.00
2022-08-17T01:37:05.148Z,20.00
2022-08-17T01:39:41.182Z,20.00
2022-08-17T01:42:34.576Z,20.00
2022-08-17T01:45:11.062Z,19.90
2022-08-17T01:47:38.527Z,19.90
2022-08-17T01:50:10.612Z,19.90
2022-08-17T01:52:42.451Z,19.90
2022-08-17T01:55:10.475Z,19.90
2022-08-17T01:57:37.895Z,19.80
2022-08-17T02:00:10.433Z,19.80
2022-08-17T02:02:38.265Z,19.80
2022-08-17T02:05:07.596Z,19.80
2022-08-17T02:07:59.785Z,19.70
2022-08-17T02:10:24.143Z,19.70
2022-08-17T02:13:03.357Z,19.70
2022-08-17T02:15:30.823Z,19.70
2022-08-17T02:17:57.917Z,19.70
2022-08-17T02:20:41.585Z,19.60
2022-08-17T02:23:12.585Z,19.60
2022-08-17T02:25:43.412Z,19.60
2022-08-17T02:28:10.902Z,19.50
2022-08-17T02:30:59.028Z,19.50
2022-08-17T02:33:43.037Z,19.40
2022-08-17T02:36:12.769Z,19.40
2022-08-17T02:38:44.090Z,19.40
2022-08-17T02:41:12.686Z,19.30
2022-08-17T02:43:40.020Z,19.30
2022-08-17T02:46:07.183Z,19.30
2022-08-17T02:48:34.284Z,19.30
2022-08-17T02:51:02.845Z,19.30
2022-08-17T02:53:35.676Z,19.30
2022-08-17T02:56:06.254Z,19.30
2022-08-17T02:58:34.991Z,19.30
2022-08-17T03:01:08.874Z,19.20
2022-08-17T03:03:38.446Z,19.20
2022-08-17T03:06:07.726Z,19.20
2022-08-17T03:08:35.554Z,19.20
2022-08-17T03:11:02.685Z,19.10
2022-08-17T03:13:30.848Z,19.10
2022-08-17T03:15:58.735Z,19.10
2022-08-17T03:18:27.991Z,19.10
2022-08-17T03:20:59.995Z,19.10
2022-08-17T03:23:29.663Z,19.00
2022-08-17T03:25:58.683Z,19.00
2022-08-17T03:28:26.202Z,19.00
2022-08-17T03:30:53.898Z,19.00
2022-08-17T03:33:21.580Z,19.00
2022-08-17T03:35:48.908Z,19.00
2022-08-17T03:38:17.218Z,18.90
2022-08-17T03:40:56.729Z,18.90
2022-08-17T03:43:31.589Z,18.90
2022-08-17T03:46:34.683Z,18.80
2022-08-17T03:49:26.629Z,18.80
2022-08-17T03:52:14.012Z,18.80
2022-08-17T03:55:00.817Z,18.80
2022-08-17T03:57:29.157Z,18.80
2022-08-17T03:59:57.497Z,18.80
2022-08-17T04:02:33.558Z,18.80
2022-08-17T04:05:01.128Z,18.80
2022-08-17T04:07:30.515Z,18.70
2022-08-17T04:09:58.272Z,18.70
2022-08-17T04:12:30.806Z,18.70
2022-08-17T04:14:58.705Z,18.70
2022-08-17T04:17:29.827Z,18.60
2022-08-17T04:19:58.097Z,18.70
2022-08-17T04:22:31.262Z,18.60
2022-08-17T04:25:09.934Z,18.60
2022-08-17T04:27:37.227Z,18.60
2022-08-17T04:30:07.326Z,18.60
2022-08-17T04:33:08.782Z,18.60
2022-08-17T04:35:46.022Z,18.60
2022-08-17T04:38:20.680Z,18.70
2022-08-17T04:41:10.801Z,18.70
2022-08-17T04:43:41.141Z,18.70
2022-08-17T04:46:15.215Z,18.70
2022-08-17T04:48:48.215Z,18.70
2022-08-17T04:51:28.062Z,18.80
2022-08-17T04:54:05.991Z,18.80
2022-08-17T04:56:34.379Z,18.80
2022-08-17T04:59:13.139Z,18.90
2022-08-17T05:01:42.371Z,18.80
2022-08-17T05:04:33.166Z,18.90
2022-08-17T05:07:04.683Z,18.90
2022-08-17T05:09:32.231Z,18.90
2022-08-17T05:12:03.080Z,19.00
2022-08-17T05:14:33.414Z,19.00
2022-08-17T05:17:01.923Z,19.10
2022-08-17T05:19:36.479Z,19.20
2022-08-17T05:22:07.499Z,19.20
2022-08-17T05:24:40.688Z,19.30
2022-08-17T05:27:18.805Z,19.40
2022-08-17T05:29:46.479Z,19.40
2022-08-17T05:32:39.406Z,19.50
2022-08-17T05:35:02.411Z,19.50
2022-08-17T05:37:29.583Z,19.60
2022-08-17T05:39:56.730Z,19.70
2022-08-17T05:42:24.197Z,19.80
2022-08-17T05:44:51.336Z,19.90
2022-08-17T05:47:18.739Z,19.90
2022-08-17T05:49:49.119Z,20.00
2022-08-17T05:52:46.805Z,20.10
2022-08-17T05:55:27.716Z,20.20
2022-08-17T05:58:20.272Z,20.30
2022-08-17T06:01:04.576Z,20.40
2022-08-17T06:03:59.962Z,20.50
2022-08-17T06:06:46.689Z,20.60
2022-08-17T06:09:33.849Z,20.60
2022-08-17T06:12:37.421Z,20.70
2022-08-17T06:15:47.587Z,20.80
2022-08-17T06:18:20.084Z,20.90
2022-08-17T06:21:07.165Z,21.00
2022-08-17T06:23:48.338Z,21.10
2022-08-17T06:26:21.456Z,21.30
2022-08-17T06:29:08.901Z,21.40
2022-08-17T06:31:46.254Z,21.50
2022-08-17T06:34:15.058Z,21.60
2022-08-17T06:37:04.075Z,21.70
2022-08-17T06:39:41.306Z,21.80
2022-08-17T06:42:09.578Z,21.90
2022-08-17T06:45:22.494Z,22.00
2022-08-17T06:48:32.776Z,22.10
2022-08-17T06:51:18.404Z,22.20
2022-08-17T06:54:05.597Z,22.30
2022-08-17T06:56:54.338Z,22.40
2022-08-17T06:59:54.378Z,22.60
2022-08-17T07:02:51.982Z,22.70
2022-08-17T07:05:34.757Z,22.80
2022-08-17T07:08:14.846Z,22.90
2022-08-17T07:10:54.833Z,23.00
2022-08-17T07:13:31.121Z,23.10
2022-08-17T07:16:25.861Z,23.20
2022-08-17T07:18:56.273Z,23.40
2022-08-17T07:21:51.680Z,23.50
2022-08-17T07:24:59.731Z,23.60
2022-08-17T07:27:38.270Z,23.70
2022-08-17T07:30:21.273Z,23.80
2022-08-17T07:35:50.990Z,24.00
2022-08-17T07:38:25.240Z,24.10
2022-08-17T07:41:03.130Z,24.30
2022-08-17T07:43:39.638Z,24.40
2022-08-17T07:46:25.218Z,24.40
2022-08-17T07:49:12.565Z,24.50
2022-08-17T07:51:48.201Z,24.60
2022-08-17T07:54:27.823Z,24.70
2022-08-17T07:57:29.395Z,24.80
2022-08-17T07:59:59.920Z,25.00
2022-08-17T08:02:38.676Z,25.10
2022-08-17T08:05:29.874Z,25.30
2022-08-17T08:08:50.465Z,25.50
2022-08-17T08:11:40.191Z,25.60
2022-08-17T08:14:29.626Z,25.70
2022-08-17T08:17:06.529Z,25.80
2022-08-17T08:19:39.287Z,25.90
2022-08-17T08:22:19.409Z,26.00
2022-08-17T08:25:22.245Z,26.10
2022-08-17T08:28:07.953Z,26.30
2022-08-17T08:30:38.352Z,26.50
2022-08-17T08:33:25.385Z,26.70
2022-08-17T08:36:05.429Z,26.80
2022-08-17T08:39:05.322Z,26.90
2022-08-17T08:41:47.975Z,27.10
2022-08-17T08:45:10.326Z,27.20
2022-08-17T08:48:56.955Z,27.30
2022-08-17T08:51:21.512Z,27.40
2022-08-17T08:53:51.986Z,27.60
2022-08-17T08:56:58.942Z,27.70
2022-08-17T08:59:44.319Z,27.80
2022-08-17T09:02:45.610Z,27.90
2022-08-17T09:05:43.937Z,28.00
2022-08-17T09:08:25.410Z,28.10
2022-08-17T09:12:02.498Z,28.20
2022-08-17T09:14:47.003Z,28.30
2022-08-17T09:17:36.513Z,28.50
2022-08-17T09:20:28.142Z,28.50
2022-08-17T09:23:12.511Z,28.60
2022-08-17T09:26:41.286Z,28.80
2022-08-17T09:29:17.492Z,28.80
2022-08-17T09:31:58.601Z,29.00
2022-08-17T09:34:49.547Z,29.10
2022-08-17T09:37:34.189Z,29.30
2022-08-17T09:40:18.429Z,29.40
2022-08-17T09:43:04.162Z,29.50
2022-08-17T09:45:49.463Z,29.60
2022-08-17T09:48:47.402Z,29.70
2022-08-17T09:51:26.645Z,29.90
2022-08-17T09:53:54.310Z,30.00
2022-08-17T09:57:32.510Z,30.20
2022-08-17T10:00:10.435Z,30.40
2022-08-17T10:03:02.610Z,30.50
2022-08-17T10:05:46.698Z,30.60
2022-08-17T10:08:52.428Z,30.70
2022-08-17T10:11:48.446Z,30.80
2022-08-17T10:14:46.492Z,30.90
2022-08-17T10:17:23.217Z,31.10
2022-08-17T10:23:07.209Z,31.40
2022-08-17T10:26:00.673Z,31.50
2022-08-17T10:28:48.907Z,31.60
2022-08-17T10:31:41.658Z,31.60
2022-08-17T10:34:44.717Z,31.70
2022-08-17T10:38:01.757Z,31.80
2022-08-17T10:40:36.501Z,31.90
2022-08-17T10:43:34.586Z,32.00
2022-08-17T10:46:54.288Z,32.10
2022-08-17T10:49:32.684Z,32.20
2022-08-17T10:52:26.278Z,32.20
2022-08-17T10:54:57.896Z,32.40
2022-08-17T10:57:34.510Z,32.50
2022-08-17T11:00:14.866Z,32.50
2022-08-17T11:02:52.652Z,32.60
2022-08-17T11:05:52.332Z,32.70
2022-08-17T11:09:05.306Z,32.80
2022-08-17T11:11:45.469Z,32.90
2022-08-17T11:14:41.293Z,32.90
2022-08-17T11:17:50.847Z,33.10
2022-08-17T11:20:41.348Z,33.10
2022-08-17T11:23:17.236Z,33.30
2022-08-17T11:26:08.196Z,33.30
2022-08-17T11:28:50.349Z,33.50
2022-08-17T11:31:43.471Z,33.50
2022-08-17T11:34:29.999Z,33.60
2022-08-17T11:37:03.448Z,33.70
2022-08-17T11:39:50.671Z,33.70
2022-08-17T11:42:48.418Z,33.70
2022-08-17T11:45:46.942Z,33.70
2022-08-17T11:49:08.695Z,33.90
2022-08-17T11:52:05.039Z,34.00
2022-08-17T11:54:49.085Z,34.10
2022-08-17T11:57:31.127Z,34.30
2022-08-17T12:00:12.155Z,34.40
2022-08-17T12:02:48.419Z,34.50
2022-08-17T12:05:19.032Z,34.60
2022-08-17T12:08:05.481Z,34.60
2022-08-17T12:10:58.259Z,34.70
2022-08-17T12:13:38.620Z,34.80
2022-08-17T12:16:10.019Z,34.80
2022-08-17T12:18:39.754Z,34.80
2022-08-17T12:21:23.188Z,34.90
2022-08-17T12:24:05.384Z,34.90
2022-08-17T12:26:36.855Z,34.90
2022-08-17T12:29:18.301Z,35.00
2022-08-17T12:32:06.928Z,35.00
2022-08-17T12:34:43.351Z,35.10
2022-08-17T12:37:21.400Z,35.20
2022-08-17T12:39:57.478Z,35.30
2022-08-17T12:42:37.489Z,35.20
2022-08-17T12:45:33.687Z,35.20
2022-08-17T12:48:11.040Z,35.20
2022-08-17T12:50:44.910Z,35.20
2022-08-17T12:53:24.916Z,35.10
2022-08-17T12:55:53.865Z,35.20
2022-08-17T12:58:31.521Z,35.30
2022-08-17T13:01:13.987Z,35.40
2022-08-17T13:03:49.971Z,35.50
2022-08-17T13:06:36.553Z,35.60
2022-08-17T13:09:20.105Z,35.70
2022-08-17T13:11:55.316Z,35.70
2022-08-17T13:14:22.677Z,35.90
2022-08-17T13:17:01.620Z,36.00
2022-08-17T13:19:40.859Z,36.10
2022-08-17T13:22:12.881Z,36.10
2022-08-17T13:24:55.641Z,36.20
2022-08-17T13:27:26.595Z,36.30
2022-08-17T13:32:45.073Z,36.60
2022-08-17T13:35:40.041Z,36.70
2022-08-17T13:38:51.189Z,36.80
2022-08-17T13:41:37.129Z,36.90
2022-08-17T13:44:29.630Z,36.90
2022-08-17T13:46:57.481Z,37.00
2022-08-17T13:49:24.783Z,37.10
2022-08-17T13:52:43.109Z,37.10
2022-08-17T13:55:21.993Z,37.10
2022-08-17T13:58:04.147Z,37.10
2022-08-17T14:00:37.632Z,37.30
2022-08-17T14:03:08.013Z,37.40
2022-08-17T14:05:41.810Z,37.60
2022-08-17T14:08:13.522Z,37.70
2022-08-17T14:10:45.166Z,37.80
2022-08-17T14:13:15.224Z,37.80
2022-08-17T14:15:56.041Z,37.70
2022-08-17T14:18:50.622Z,37.80
2022-08-17T14:21:14.771Z,37.80
2022-08-17T14:23:54.526Z,37.70
2022-08-17T14:26:23.294Z,37.60
2022-08-17T14:28:56.733Z,37.60
2022-08-17T14:31:25.063Z,37.60
2022-08-17T14:33:52.610Z,37.70
2022-08-17T14:36:19.868Z,37.70
2022-08-17T14:38:50.584Z,37.80
2022-08-17T14:41:23.483Z,37.60
2022-08-17T14:43:53.511Z,37.60
2022-08-17T14:46:20.711Z,37.70
2022-08-17T14:48:52.727Z,37.90
2022-08-17T14:51:28.595Z,38.00
2022-08-17T14:53:57.224Z,38.10
2022-08-17T14:56:26.156Z,38.10
2022-08-17T14:58:53.323Z,38.00
2022-08-17T15:01:22.137Z,38.00
2022-08-17T15:03:54.053Z,38.10
2022-08-17T15:06:24.305Z,38.10
2022-08-17T15:08:53.646Z,38.10
2022-08-17T15:11:20.850Z,38.00
2022-08-17T15:13:52.299Z,38.10
2022-08-17T15:16:20.579Z,38.10
2022-08-17T15:18:48.438Z,38.10
2022-08-17T15:21:15.923Z,38.10
2022-08-17T15:23:43.162Z,38.00
2022-08-17T15:26:11.422Z,37.90
2022-08-17T15:28:38.563Z,37.90
2022-08-17T15:31:06.728Z,37.80
2022-08-17T15:33:36.748Z,37.80
2022-08-17T15:36:07.790Z,37.70
2022-08-17T15:38:39.397Z,37.60
2022-08-17T15:41:17.955Z,37.50
2022-08-17T15:43:49.936Z,37.10
2022-08-17T15:46:24.180Z,36.80
2022-08-17T15:48:59.694Z,36.40
2022-08-17T15:51:29.635Z,36.20
2022-08-17T15:54:19.072Z,35.90
2022-08-17T15:56:49.995Z,35.70
2022-08-17T15:59:17.127Z,35.40
2022-08-17T16:03:01.812Z,35.20
2022-08-17T16:04:31.654Z,35.00
2022-08-17T16:07:02.145Z,34.90
2022-08-17T16:09:29.245Z,34.90
2022-08-17T16:11:56.790Z,34.80
2022-08-17T16:14:30.221Z,34.70
2022-08-17T16:17:00.736Z,34.60
2022-08-17T16:19:27.890Z,34.50
2022-08-17T16:21:54.932Z,34.40
2022-08-17T16:24:22.082Z,34.20
2022-08-17T16:26:49.155Z,34.10
2022-08-17T16:29:16.582Z,33.90
2022-08-17T16:31:43.809Z,33.80
2022-08-17T16:34:17.284Z,33.70
2022-08-17T16:36:54.955Z,33.50
2022-08-17T16:39:29.213Z,33.40
2022-08-17T16:41:57.488Z,33.30
2022-08-17T16:44:27.531Z,33.20
2022-08-17T16:46:54.644Z,33.10
2022-08-17T16:49:36.058Z,33.00
2022-08-17T16:52:10.077Z,32.80
2022-08-17T16:54:43.632Z,32.70
2022-08-17T16:57:12.975Z,32.60
2022-08-17T17:02:37.072Z,32.40
2022-08-17T17:05:28.680Z,32.30
2022-08-17T17:08:09.624Z,32.10
2022-08-17T17:10:50.073Z,32.00
2022-08-17T17:13:49.755Z,31.80
2022-08-17T17:16:28.598Z,31.70
2022-08-17T17:19:17.955Z,31.60
2022-08-17T17:22:10.944Z,31.50
2022-08-17T17:25:16.329Z,31.30
2022-08-17T17:27:58.938Z,31.20
2022-08-17T17:30:48.257Z,31.10
2022-08-17T17:33:24.777Z,30.90
2022-08-17T17:36:06.993Z,30.80
2022-08-17T17:38:52.831Z,30.70
2022-08-17T17:41:43.506Z,30.50
2022-08-17T17:44:20.025Z,30.40
2022-08-17T17:46:56.908Z,30.20
2022-08-17T17:49:46.101Z,30.10
2022-08-17T17:52:47.535Z,30.00
2022-08-17T17:55:25.206Z,29.90
2022-08-17T17:58:38.275Z,29.70
2022-08-17T18:01:42.722Z,29.60
2022-08-17T18:04:28.623Z,29.40
2022-08-17T18:07:19.623Z,29.20
2022-08-17T18:10:29.697Z,29.10
2022-08-17T18:13:29.126Z,29.00
2022-08-17T18:16:00.710Z,28.80
2022-08-17T18:18:46.074Z,28.70
2022-08-17T18:21:21.908Z,28.50
2022-08-17T18:23:53.832Z,28.40
2022-08-17T18:26:36.653Z,28.30
2022-08-17T18:29:25.959Z,28.20
2022-08-17T18:32:34.071Z,28.10
2022-08-17T18:35:10.095Z,28.00
2022-08-17T18:37:45.971Z,27.90
2022-08-17T18:40:21.467Z,27.80
2022-08-17T18:43:00.479Z,27.70
2022-08-17T18:45:44.704Z,27.60
2022-08-17T18:48:23.327Z,27.60
2022-08-17T18:51:20.804Z,27.40
2022-08-17T18:54:25.384Z,27.40
2022-08-17T18:57:00.468Z,27.30
2022-08-17T18:59:48.288Z,27.20
2022-08-17T19:02:44.163Z,27.10
2022-08-17T19:05:42.184Z,27.00
2022-08-17T19:08:18.507Z,26.90
2022-08-17T19:11:03.645Z,26.90
2022-08-17T19:13:47.588Z,26.80
2022-08-17T19:16:32.372Z,26.70
2022-08-17T19:19:20.060Z,26.60
2022-08-17T19:21:57.221Z,26.50
2022-08-17T19:24:27.671Z,26.50
2022-08-17T19:27:19.198Z,26.30
2022-08-17T19:30:07.815Z,26.30
2022-08-17T19:32:38.284Z,26.20
2022-08-17T19:35:15.151Z,26.20
2022-08-17T19:37:56.659Z,26.10
2022-08-17T19:41:11.680Z,26.00
2022-08-17T19:43:56.687Z,26.00
2022-08-17T19:46:50.701Z,26.00
2022-08-17T19:49:53.016Z,25.90
2022-08-17T19:52:51.085Z,25.90
2022-08-17T19:55:26.709Z,25.80
2022-08-17T19:58:51.623Z,25.70
2022-08-17T20:01:41.227Z,25.70
2022-08-17T20:04:31.830Z,25.60
2022-08-17T20:08:02.463Z,25.50
2022-08-17T20:11:12.693Z,25.50
2022-08-17T20:13:52.239Z,25.40
2022-08-17T20:16:20.234Z,25.30
2022-08-17T20:19:01.428Z,25.30
2022-08-17T20:21:34.150Z,25.30
2022-08-17T20:24:21.900Z,25.20
2022-08-17T20:26:59.669Z,25.10
2022-08-17T20:29:54.829Z,25.10
2022-08-17T20:32:36.679Z,25.00
2022-08-17T20:35:38.757Z,25.00
2022-08-17T20:38:13.255Z,25.00
2022-08-17T20:41:03.958Z,24.90
2022-08-17T20:43:34.267Z,24.90
2022-08-17T20:46:38.347Z,24.80
2022-08-17T20:49:13.376Z,24.70
2022-08-17T20:52:02.363Z,24.70
2022-08-17T20:54:58.613Z,24.60
2022-08-17T20:57:31.990Z,24.60
2022-08-17T21:00:40.606Z,24.50
2022-08-17T21:03:22.727Z,24.40
2022-08-17T21:06:25.307Z,24.40
2022-08-17T21:09:16.269Z,24.30
2022-08-17T21:12:04.527Z,24.30
2022-08-17T21:14:58.137Z,24.20
2022-08-17T21:17:47.059Z,24.10
2022-08-17T21:20:34.707Z,24.10
2022-08-17T21:23:30.366Z,24.10
2022-08-17T21:26:21.153Z,24.00
2022-08-17T21:29:29.935Z,24.00
2022-08-17T21:32:05.494Z,23.90
2022-08-17T21:34:39.224Z,23.90
2022-08-17T21:37:24.523Z,23.90
2022-08-17T21:39:58.100Z,23.80
2022-08-17T21:42:33.347Z,23.80
2022-08-17T21:45:26.002Z,23.80
2022-08-17T21:48:24.070Z,23.70
2022-08-17T21:51:19.558Z,23.70
2022-08-17T21:54:14.770Z,23.70
2022-08-17T21:56:47.276Z,23.60
2022-08-17T21:59:39.321Z,23.60
2022-08-17T22:02:22.080Z,23.60
2022-08-17T22:05:12.594Z,23.60
2022-08-17T22:07:47.749Z,23.50
2022-08-17T22:10:42.040Z,23.50
2022-08-17T22:13:19.849Z,23.40
2022-08-17T22:16:27.715Z,23.40
2022-08-17T22:18:58.927Z,23.30
2022-08-17T22:21:26.764Z,23.30
2022-08-17T22:24:21.379Z,23.20
2022-08-17T22:27:11.587Z,23.20
2022-08-17T22:29:57.117Z,23.20
2022-08-17T22:32:55.446Z,23.10
2022-08-17T22:35:42.653Z,23.10
2022-08-17T22:38:18.892Z,23.00
2022-08-17T22:40:52.552Z,23.00
2022-08-17T22:43:28.697Z,23.00
2022-08-17T22:46:00.104Z,22.90
2022-08-17T22:48:29.506Z,22.90
2022-08-17T22:51:14.536Z,22.90
2022-08-17T22:54:14.410Z,22.80
2022-08-17T22:57:18.724Z,22.80
2022-08-17T22:59:50.820Z,22.80
2022-08-17T23:02:32.357Z,22.80
2022-08-17T23:05:14.317Z,22.70
2022-08-17T23:07:47.142Z,22.60
2022-08-17T23:10:15.346Z,22.60
2022-08-17T23:12:42.814Z,22.60
2022-08-17T23:15:15.595Z,22.60
2022-08-17T23:17:45.364Z,22.50
2022-08-17T23:20:16.292Z,22.50
2022-08-17T23:22:51.973Z,22.50
2022-08-17T23:25:28.948Z,22.40
2022-08-17T23:28:01.613Z,22.40
2022-08-17T23:30:31.668Z,22.30
2022-08-17T23:33:07.218Z,22.30
2022-08-17T23:35:40.635Z,22.30
2022-08-17T23:38:13.338Z,22.20
2022-08-17T23:40:41.402Z,22.20
2022-08-17T23:43:25.402Z,22.20
2022-08-17T23:46:03.559Z,22.10
2022-08-17T23:48:36.628Z,22.10
2022-08-17T23:51:12.209Z,22.00
2022-08-17T23:53:47.314Z,22.00
2022-08-17T23:56:15.847Z,22.00
2022-08-17T23:58:44.906Z,22.00
